Portada
METAR-TAF:

METAR-TAF

Aeropuertos :

Ciudad de Kuwait, Kuwait

Aeropuerto Internacional de Kuwait

latitud: 29-13N, longitud: 047-59E, altitud: 55 m

Observación

El informe se hizo hace 1 hora y 4 minutos, a las 06:00 UTC
Viento 17 kt del norte
Temperatura 36°C
Humedad 16%
Presión 1003 hPa
Visibilidad 10 km o más
sin nubes por debajo de 1500 m y sin presencia de cumulonimbus.

METAR: OKBK 240600Z 35017KT CAVOK 36/06 Q1003 NOSIG

Hora: 10:04 (07:04 UTC)

Pronóstico

El informe se hizo hace 14 horas y 4 minutos, a las 17:00 UTC
Pronóstico válido del 23 a las 18 UTC al 24 a las 24 UTC
Viento 12 kt del norte-noroeste con ráfagas de 25 kt
Visibilidad: 7000 m
Cielo despejado
Temporalmente
del 23 a las 18 UTC al 24 a las 09 UTC
Visibilidad: 3000 m
Ventisca alta de polvo

TAF: OKBK 231700Z 2318/2424 34012G25KT 7000 SKC TEMPO 2318/2409 3000 BLDU

Observaciones y pronósticos meteorológicos de más de 4000 aeropuertos (mensajes METAR y TAF).

Los puntos amarillos y rojos representan las estaciones disponibles.

Ponga el ratón en el punto deseado para ver el nombre de la estación.

Haga clic para ver las observaciones y los pronósticos meteorológicos.

Para cambiar el mapa : haga clic en los botones verdes con una cruz de color negro para hacer un zoom, en el botón verde con un guión para alejar o en las flechas verdes para mapas adyacentes.


METAR-TAF: